createdAt,value
2023-03-22T05:26:09.207Z,20.20
2023-03-22T05:30:13.592Z,17.45
2023-03-22T05:34:17.608Z,16.50
2023-03-22T05:38:23.146Z,15.33
2023-03-22T05:42:26.780Z,18.02
2023-03-22T05:46:30.318Z,18.55
2023-03-22T05:50:36.001Z,13.30
2023-03-22T05:54:39.996Z,15.77
2023-03-22T05:58:45.145Z,16.37
2023-03-22T06:02:49.698Z,13.48
2023-03-22T06:06:54.142Z,17.87
2023-03-22T06:10:58.514Z,12.85
2023-03-22T06:15:02.515Z,11.23
2023-03-22T06:19:08.396Z,10.27
2023-03-22T06:23:11.793Z,10.40
2023-03-22T06:27:15.118Z,9.90
2023-03-22T06:31:39.360Z,10.25
2023-03-22T06:35:42.275Z,8.27
2023-03-22T06:39:46.744Z,8.63
2023-03-22T06:43:50.225Z,9.57
2023-03-22T06:47:57.780Z,8.93
2023-03-22T06:52:01.530Z,8.65
2023-03-22T06:56:05.960Z,8.05
2023-03-22T07:00:13.274Z,8.73
2023-03-22T07:04:21.086Z,7.95
2023-03-22T07:08:26.095Z,7.50
2023-03-22T07:12:32.521Z,7.22
2023-03-22T07:17:01.485Z,6.30
2023-03-22T07:21:24.415Z,7.03
2023-03-22T07:26:07.471Z,6.90
2023-03-22T07:30:38.899Z,7.13
2023-03-22T07:34:51.702Z,6.62
2023-03-22T07:39:00.387Z,5.97
2023-03-22T07:43:17.798Z,7.23
2023-03-22T07:52:34.770Z,6.62
2023-03-22T07:57:08.837Z,6.03
2023-03-22T08:01:18.450Z,5.47
2023-03-22T08:05:29.901Z,5.72
2023-03-22T08:09:47.278Z,5.18
2023-03-22T08:14:27.449Z,5.60
2023-03-22T08:19:13.143Z,5.82
2023-03-22T08:23:42.045Z,5.25
2023-03-22T08:28:14.514Z,5.90
2023-03-22T08:32:41.771Z,5.22
2023-03-22T08:36:50.771Z,5.85
2023-03-22T08:41:55.336Z,5.68
2023-03-22T08:47:25.668Z,4.70
2023-03-22T08:56:33.709Z,5.05
2023-03-22T09:10:20.843Z,6.10
2023-03-22T09:14:25.090Z,5.80
2023-03-22T09:19:34.049Z,5.78
2023-03-22T09:29:18.494Z,6.07
2023-03-22T09:33:44.830Z,5.50
2023-03-22T09:37:55.132Z,6.30
2023-03-22T09:42:08.999Z,6.40
2023-03-22T09:46:44.919Z,6.57
2023-03-22T09:50:53.028Z,6.53
2023-03-22T09:55:42.384Z,6.85
2023-03-22T10:00:23.356Z,7.67
2023-03-22T10:04:51.240Z,8.02
2023-03-22T10:09:10.692Z,8.27
2023-03-22T10:14:11.926Z,9.25
2023-03-22T10:18:55.728Z,7.27
2023-03-22T10:23:02.326Z,6.95
2023-03-22T10:32:22.187Z,6.47
2023-03-22T10:36:40.890Z,6.20
2023-03-22T10:40:53.746Z,5.68
2023-03-22T10:45:22.696Z,5.80
2023-03-22T10:49:56.365Z,6.18
2023-03-22T10:54:27.982Z,5.50
2023-03-22T10:58:51.535Z,5.35
2023-03-22T11:03:00.353Z,4.50
2023-03-22T11:07:03.647Z,5.47
2023-03-22T11:16:05.796Z,5.00
2023-03-22T11:20:24.161Z,4.53
2023-03-22T11:24:47.204Z,3.22
2023-03-22T11:29:30.376Z,5.53
2023-03-22T11:33:39.254Z,3.78
2023-03-22T11:38:07.360Z,3.37
2023-03-22T11:42:19.915Z,4.43
2023-03-22T11:51:35.712Z,3.53
2023-03-22T11:56:33.688Z,3.65
2023-03-22T12:01:03.314Z,3.90
2023-03-22T12:10:51.912Z,6.00
2023-03-22T12:15:42.775Z,4.50
2023-03-22T12:20:15.932Z,3.80
2023-03-22T12:24:43.157Z,4.85
2023-03-22T12:28:47.304Z,5.50
2023-03-22T12:33:33.169Z,4.93
2023-03-22T12:37:41.038Z,6.97
2023-03-22T12:41:49.486Z,6.32
2023-03-22T12:45:58.394Z,6.50
2023-03-22T12:50:13.352Z,6.62
2023-03-22T12:54:23.838Z,7.12
2023-03-22T12:58:45.359Z,6.70
2023-03-22T13:03:59.985Z,7.07
2023-03-22T13:08:23.245Z,8.23
2023-03-22T13:17:02.204Z,8.47
2023-03-22T13:21:19.346Z,8.13
2023-03-22T13:25:37.728Z,7.47
2023-03-22T13:29:42.315Z,7.20
2023-03-22T13:33:54.487Z,7.62
2023-03-22T13:38:14.124Z,6.90
2023-03-22T13:42:23.034Z,5.23
2023-03-22T13:46:45.427Z,7.50
2023-03-22T13:51:08.271Z,5.50
2023-03-22T13:55:35.269Z,6.05
2023-03-22T14:00:14.403Z,4.43
2023-03-22T14:04:29.802Z,5.47
2023-03-22T14:08:35.051Z,5.50
2023-03-22T14:12:51.308Z,5.30
2023-03-22T14:17:27.207Z,4.87
